Time;durP1;ratioP1;P1;durP2;ratioP2;P2;SDS_P1;SDS_P2;PMS_P1;PMS_P2;Temp;Humidity;BMP_temperature;BMP_pressure;BME280_temperature;BME280_humidity;BME280_pressure;Samples;Min_cycle;Max_cycle;Signal;HPM_P1;HPM_P2
2022/07/11 00:02:21;;;;;;;4.73;1.30;;;;;;;19.53;47.59;98537.19;8412352;28;20226;-79
2022/07/11 00:06:24;;;;;;;2.70;1.10;;;;;;;19.50;47.99;98533.94;8412682;28;20526;-78
2022/07/11 00:10:28;;;;;;;3.70;1.23;;;;;;;19.57;47.97;98527.25;8412880;28;20227;-79
2022/07/11 00:14:31;;;;;;;3.67;0.90;;;;;;;19.45;48.22;98530.78;8412659;28;20235;-79
2022/07/11 00:18:34;;;;;;;3.33;1.10;;;;;;;19.43;48.57;98528.25;8413004;28;20239;-79
2022/07/11 00:22:37;;;;;;;3.13;0.90;;;;;;;19.40;48.64;98522.38;8412991;28;20283;-80
2022/07/11 00:26:41;;;;;;;3.30;0.97;;;;;;;19.39;49.17;98528.59;8412787;28;20239;-79
2022/07/11 00:30:45;;;;;;;4.03;1.17;;;;;;;19.42;49.08;98526.59;8412756;28;20226;-79
2022/07/11 00:34:47;;;;;;;2.07;0.97;;;;;;;19.32;49.47;98520.31;8412552;28;20463;-79
2022/07/11 00:38:50;;;;;;;5.10;1.20;;;;;;;19.25;49.74;98522.56;8414878;28;20237;-79
2022/07/11 00:42:55;;;;;;;4.33;1.23;;;;;;;19.32;49.74;98522.94;8418306;28;20233;-79
2022/07/11 00:46:58;;;;;;;3.07;0.90;;;;;;;19.19;50.25;98523.00;8418423;28;20231;-79
2022/07/11 00:51:02;;;;;;;2.37;1.00;;;;;;;19.26;49.76;98526.84;8418438;28;20337;-79
2022/07/11 00:55:07;;;;;;;4.03;1.50;;;;;;;19.18;49.57;98518.69;8418451;28;20422;-79
2022/07/11 00:59:11;;;;;;;3.47;1.20;;;;;;;19.27;49.77;98519.81;8417863;28;20231;-79
2022/07/11 01:03:14;;;;;;;2.70;1.00;;;;;;;19.21;49.76;98522.88;8417950;28;20227;-79
2022/07/11 01:07:17;;;;;;;6.33;1.33;;;;;;;19.21;49.86;98518.47;8417887;28;20231;-79
2022/07/11 01:11:19;;;;;;;3.97;1.40;;;;;;;19.19;49.63;98522.13;8417711;28;20234;-79
2022/07/11 01:15:24;;;;;;;3.07;1.20;;;;;;;19.12;49.33;98516.50;8417284;28;20533;-78
2022/07/11 01:19:27;;;;;;;5.43;1.20;;;;;;;19.17;49.23;98513.53;8417390;28;20301;-79
2022/07/11 01:23:32;;;;;;;2.53;1.10;;;;;;;19.15;48.94;98505.75;8417568;28;20413;-79
2022/07/11 01:27:36;;;;;;;3.13;1.20;;;;;;;19.11;48.94;98501.69;8417157;28;20238;-79
2022/07/11 01:31:39;;;;;;;2.30;1.13;;;;;;;19.16;48.79;98499.56;8416958;28;20245;-79
2022/07/11 01:35:42;;;;;;;4.10;1.17;;;;;;;19.11;49.34;98496.44;8417105;28;20250;-80
2022/07/11 01:39:46;;;;;;;3.50;1.20;;;;;;;19.11;49.14;98492.03;8416950;28;20411;-79
2022/07/11 01:43:49;;;;;;;3.20;1.37;;;;;;;19.08;48.95;98492.25;8416844;28;20238;-80
2022/07/11 01:47:52;;;;;;;3.17;1.07;;;;;;;19.07;48.97;98489.72;8417002;28;20238;-79
2022/07/11 01:51:54;;;;;;;5.27;1.40;;;;;;;19.08;49.11;98486.16;8415374;28;20238;-79
2022/07/11 01:55:59;;;;;;;2.87;1.23;;;;;;;18.98;49.37;98491.19;8416296;28;20226;-79
2022/07/11 02:00:21;;;;;;;4.47;1.37;;;;;;;18.93;49.96;98491.53;8416201;28;20254;-79
2022/07/11 02:04:24;;;;;;;4.57;1.10;;;;;;;18.94;49.33;98487.13;8415809;28;20238;-78
2022/07/11 02:08:28;;;;;;;3.30;1.10;;;;;;;18.94;49.18;98484.50;8415821;28;20238;-79
2022/07/11 02:12:32;;;;;;;2.93;1.30;;;;;;;18.99;49.26;98492.88;8415801;28;20239;-79
2022/07/11 02:16:35;;;;;;;5.20;1.30;;;;;;;18.87;49.28;98485.91;8415764;28;20242;-80
2022/07/11 02:20:39;;;;;;;2.77;1.30;;;;;;;18.73;49.81;98481.56;8415800;28;20234;-79
2022/07/11 02:24:42;;;;;;;2.57;1.30;;;;;;;18.76;49.59;98483.97;8415500;28;20420;-80
2022/07/11 02:28:47;;;;;;;3.30;1.20;;;;;;;18.79;49.48;98483.78;8415317;28;20237;-79
2022/07/11 02:32:50;;;;;;;2.87;1.27;;;;;;;18.77;49.63;98483.00;8415107;28;20230;-79
2022/07/11 02:36:53;;;;;;;2.30;1.10;;;;;;;18.78;49.41;98484.72;8415233;28;20246;-79
2022/07/11 02:40:56;;;;;;;5.40;1.40;;;;;;;18.71;49.48;98489.53;8414912;28;20235;-79
2022/07/11 02:45:00;;;;;;;5.17;1.30;;;;;;;18.77;49.59;98485.63;8414984;28;20227;-79
2022/07/11 02:49:03;;;;;;;5.70;1.30;;;;;;;18.71;49.98;98488.69;8414592;28;20234;-79
2022/07/11 02:53:06;;;;;;;3.20;1.30;;;;;;;18.68;50.05;98491.56;8414760;28;20631;-79
2022/07/11 02:57:08;;;;;;;3.60;1.30;;;;;;;18.72;49.96;98493.84;8414550;28;20517;-79
2022/07/11 03:01:13;;;;;;;3.37;1.60;;;;;;;18.71;50.19;98486.91;8413807;28;20222;-80
2022/07/11 03:05:16;;;;;;;3.10;1.20;;;;;;;18.69;50.68;98488.78;8414279;28;20235;-79
2022/07/11 03:09:18;;;;;;;5.13;1.57;;;;;;;18.62;51.11;98481.47;8414055;28;20233;-79
2022/07/11 03:13:21;;;;;;;6.93;1.30;;;;;;;18.56;51.58;98486.22;8414198;28;20234;-79
2022/07/11 03:17:26;;;;;;;2.70;1.30;;;;;;;18.54;52.14;98493.34;8413352;28;20238;-78
2022/07/11 03:21:28;;;;;;;3.87;1.40;;;;;;;18.56;52.35;98491.44;8413573;28;20223;-79
2022/07/11 03:25:31;;;;;;;4.07;1.30;;;;;;;18.59;52.21;98494.81;8413818;28;20230;-79
2022/07/11 03:29:34;;;;;;;3.13;1.10;;;;;;;18.59;52.69;98500.06;8413633;28;20246;-79
2022/07/11 03:33:38;;;;;;;4.53;1.43;;;;;;;18.54;52.63;98495.97;8413638;28;20231;-80
2022/07/11 03:37:42;;;;;;;3.90;1.27;;;;;;;18.59;53.10;98489.56;8413522;28;20434;-79
2022/07/11 03:41:45;;;;;;;2.13;1.10;;;;;;;18.60;53.19;98496.47;8413780;28;20226;-79
2022/07/11 03:45:47;;;;;;;3.70;1.43;;;;;;;18.52;53.45;98494.38;8413389;28;20230;-80
2022/07/11 03:49:52;;;;;;;4.30;1.60;;;;;;;18.56;52.98;98501.94;8413456;28;20234;-80
2022/07/11 03:53:55;;;;;;;4.47;1.60;;;;;;;18.51;52.78;98501.41;8413487;28;20237;-79
2022/07/11 03:57:57;;;;;;;4.27;1.67;;;;;;;18.53;52.73;98502.13;8413279;28;20530;-79
2022/07/11 04:02:00;;;;;;;3.80;1.43;;;;;;;18.56;52.97;98495.84;8413193;28;20298;-80
2022/07/11 04:06:05;;;;;;;3.37;1.50;;;;;;;18.61;52.99;98488.50;8413077;28;20253;-80
2022/07/11 04:10:09;;;;;;;3.13;1.30;;;;;;;18.73;52.71;98479.78;8413053;28;20533;-79
2022/07/11 04:14:12;;;;;;;2.97;1.30;;;;;;;18.67;53.31;98490.69;8416414;28;20228;-80
2022/07/11 04:18:14;;;;;;;3.67;1.40;;;;;;;18.72;53.22;98480.72;8404202;28;20228;-79
2022/07/11 04:22:19;;;;;;;4.47;1.60;;;;;;;18.75;52.91;98485.78;8391040;28;20537;-80
2022/07/11 04:26:21;;;;;;;3.23;1.40;;;;;;;18.73;53.32;98487.66;8416265;28;20227;-80
2022/07/11 04:30:24;;;;;;;2.70;1.30;;;;;;;18.85;53.15;98491.25;8418669;28;20535;-78
2022/07/11 04:34:27;;;;;;;2.17;1.10;;;;;;;18.81;53.74;98488.94;8418871;28;20230;-79
2022/07/11 04:38:31;;;;;;;1.73;1.20;;;;;;;18.88;53.37;98493.63;8418783;28;20235;-79
2022/07/11 04:42:34;;;;;;;2.63;1.37;;;;;;;18.95;53.34;98487.00;8419362;28;20235;-79
2022/07/11 04:46:37;;;;;;;2.67;1.53;;;;;;;19.00;53.16;98497.22;8418806;28;20560;-84
2022/07/11 04:50:39;;;;;;;3.53;1.40;;;;;;;19.03;53.14;98483.84;8418407;28;20583;-79
2022/07/11 04:54:43;;;;;;;8.27;1.77;;;;;;;19.01;53.46;98483.13;8418319;28;20245;-80
2022/07/11 04:58:46;;;;;;;4.90;1.80;;;;;;;19.04;53.68;98506.53;8418060;28;20228;-79
2022/07/11 05:02:49;;;;;;;3.10;1.60;;;;;;;19.12;53.38;98506.00;8418240;28;20549;-79
2022/07/11 05:06:52;;;;;;;3.67;1.53;;;;;;;19.11;54.18;98513.03;8417960;28;20564;-81
2022/07/11 05:10:56;;;;;;;4.60;1.83;;;;;;;19.06;54.56;98522.19;8418212;28;20230;-80
2022/07/11 05:14:59;;;;;;;2.27;1.57;;;;;;;19.03;54.97;98525.00;8417879;28;20226;-82
2022/07/11 05:19:02;;;;;;;4.43;1.40;;;;;;;19.03;55.49;98519.75;8417651;28;20233;-79
2022/07/11 05:23:05;;;;;;;2.47;1.30;;;;;;;19.03;55.88;98517.97;8417465;28;20246;-81
2022/07/11 05:27:10;;;;;;;2.23;1.23;;;;;;;19.06;55.83;98520.38;8417519;28;20231;-79
2022/07/11 05:31:12;;;;;;;1.27;1.00;;;;;;;19.01;56.47;98525.13;8417224;28;20397;-80
2022/07/11 05:35:15;;;;;;;1.53;1.17;;;;;;;19.12;56.57;98521.75;8417247;28;20227;-80
2022/07/11 05:39:18;;;;;;;1.70;1.20;;;;;;;18.99;57.14;98524.38;8417044;28;20235;-80
2022/07/11 05:43:23;;;;;;;1.57;1.07;;;;;;;19.16;56.46;98520.56;8417003;28;20230;-80
2022/07/11 05:47:26;;;;;;;1.57;1.30;;;;;;;19.22;56.37;98524.56;8416501;28;20222;-79
2022/07/11 05:51:28;;;;;;;3.87;1.03;;;;;;;19.27;56.63;98528.53;8416714;28;20229;-79
2022/07/11 05:55:32;;;;;;;1.00;0.90;;;;;;;19.29;56.21;98531.06;8416650;28;20525;-79
2022/07/11 05:59:37;;;;;;;2.37;1.10;;;;;;;19.28;56.42;98532.00;8416270;28;20254;-76
2022/07/11 06:03:40;;;;;;;1.20;1.00;;;;;;;19.36;56.44;98527.03;8416325;28;20226;-80
2022/07/11 06:12:04;;;;;;;1.70;1.00;;;;;;;19.56;55.99;98506.38;8414575;28;20227;-79
2022/07/11 06:16:09;;;;;;;1.10;1.00;;;;;;;19.73;55.63;98501.59;8414391;28;20230;-79
2022/07/11 06:20:12;;;;;;;1.97;1.20;;;;;;;19.77;55.30;98507.47;8414067;28;20302;-80
2022/07/11 06:24:15;;;;;;;1.30;1.20;;;;;;;19.98;55.09;98512.09;8414133;28;20227;-80
2022/07/11 06:28:18;;;;;;;0.90;0.90;;;;;;;20.11;54.96;98508.41;8413856;28;20233;-78
2022/07/11 06:32:23;;;;;;;5.27;1.43;;;;;;;20.46;52.14;98523.31;8413879;28;20237;-80
2022/07/11 06:36:26;;;;;;;6.40;1.50;;;;;;;20.64;51.25;98529.00;8412530;28;20228;-79
2022/07/11 06:40:29;;;;;;;2.57;1.00;;;;;;;20.76;51.04;98519.34;8413679;28;20232;-80
2022/07/11 06:44:32;;;;;;;3.07;1.20;;;;;;;20.78;51.29;98525.31;8413624;28;20540;-79
2022/07/11 06:48:36;;;;;;;5.43;1.27;;;;;;;20.90;51.06;98528.78;8413575;28;20245;-80
2022/07/11 06:52:39;;;;;;;1.70;1.00;;;;;;;21.05;50.88;98527.56;8413537;28;20547;-80
2022/07/11 06:56:42;;;;;;;3.10;1.00;;;;;;;21.04;50.40;98525.09;8413355;28;20261;-79
2022/07/11 07:00:45;;;;;;;5.73;1.20;;;;;;;21.13;50.61;98521.69;8413073;28;20242;-79
2022/07/11 07:04:49;;;;;;;1.40;0.90;;;;;;;21.12;50.62;98516.59;8402664;28;20238;-79
2022/07/11 07:08:53;;;;;;;5.87;1.10;;;;;;;21.11;50.80;98522.78;8341659;28;1101716;-78
2022/07/11 07:12:55;;;;;;;7.90;0.87;;;;;;;21.08;51.37;98522.06;8382018;28;20520;-77
2022/07/11 07:16:58;;;;;;;2.57;0.80;;;;;;;21.10;50.90;98532.50;8384035;28;20235;-79
2022/07/11 07:21:02;;;;;;;1.40;0.90;;;;;;;21.25;50.93;98531.28;8381645;28;20235;-77
2022/07/11 07:25:08;;;;;;;1.30;0.70;;;;;;;21.34;50.21;98532.31;8381702;28;20260;-78
2022/07/11 07:29:11;;;;;;;8.37;1.10;;;;;;;21.39;49.98;98535.44;8380616;28;20227;-79
2022/07/11 07:33:13;;;;;;;6.33;1.43;;;;;;;21.37;49.98;98531.28;8380761;28;20235;-78
2022/07/11 07:37:18;;;;;;;0.97;0.60;;;;;;;21.11;50.01;98528.06;8380484;28;20227;-84
2022/07/11 07:41:21;;;;;;;2.20;0.70;;;;;;;21.24;49.88;98534.84;8380548;28;20245;-81
2022/07/11 07:45:24;;;;;;;4.57;0.93;;;;;;;21.20;49.95;98533.44;8383361;28;20230;-78
2022/07/11 07:49:27;;;;;;;1.60;0.70;;;;;;;20.72;51.58;98530.22;8379169;28;20234;-79
2022/07/11 07:53:31;;;;;;;3.27;0.83;;;;;;;21.21;50.16;98524.59;8380337;28;20503;-79
2022/07/11 07:57:34;;;;;;;4.10;1.00;;;;;;;21.45;49.71;98527.06;8380054;28;20227;-80
2022/07/11 08:01:37;;;;;;;7.97;0.90;;;;;;;21.52;49.46;98516.91;8390318;28;20240;-80
2022/07/11 08:05:40;;;;;;;1.13;0.70;;;;;;;21.62;49.11;98520.44;8413082;28;20228;-80
2022/07/11 08:09:44;;;;;;;2.50;0.70;;;;;;;21.43;49.41;98526.31;8412894;28;20510;-80
2022/07/11 08:13:48;;;;;;;3.67;0.80;;;;;;;21.33;49.34;98525.41;8413066;28;20228;-80
2022/07/11 08:17:52;;;;;;;2.20;0.70;;;;;;;21.25;49.42;98527.81;8412949;28;20552;-80
2022/07/11 08:21:55;;;;;;;4.83;0.70;;;;;;;21.20;49.71;98530.81;8412841;28;20430;-81
2022/07/11 08:25:59;;;;;;;1.03;0.80;;;;;;;21.16;50.00;98534.63;8413050;28;20429;-80
2022/07/11 08:30:03;;;;;;;4.23;1.20;;;;;;;20.94;51.59;98538.09;8412898;28;20568;-80
2022/07/11 08:34:05;;;;;;;2.83;1.10;;;;;;;20.94;51.73;98548.63;8412921;28;20227;-80
2022/07/11 08:38:15;;;;;;;1.47;1.10;;;;;;;21.08;51.53;98540.50;8412644;28;20430;-80
2022/07/11 08:42:21;;;;;;;1.77;1.03;;;;;;;21.42;50.82;98543.13;8412513;28;20230;-79
2022/07/11 08:46:24;;;;;;;6.37;1.20;;;;;;;21.61;50.57;98539.88;8412154;28;20224;-78
2022/07/11 08:50:28;;;;;;;3.67;1.10;;;;;;;21.47;52.12;98543.59;8412470;28;20279;-79
2022/07/11 08:54:31;;;;;;;5.47;1.33;;;;;;;21.36;52.23;98538.34;8412360;28;20522;-79
2022/07/11 08:58:35;;;;;;;1.27;1.00;;;;;;;21.17;53.44;98549.50;8412561;28;20233;-79
2022/07/11 09:02:42;;;;;;;4.50;1.10;;;;;;;21.43;51.64;98542.13;8417770;28;20231;-79
2022/07/11 09:06:45;;;;;;;7.17;1.40;;;;;;;21.45;52.08;98536.78;8418379;28;20226;-79
2022/07/11 09:10:48;;;;;;;4.83;1.30;;;;;;;21.41;53.46;98538.78;8417835;28;20242;-80
2022/07/11 09:14:53;;;;;;;2.77;1.10;;;;;;;21.41;53.61;98537.97;8418045;28;20230;-80
2022/07/11 09:18:55;;;;;;;10.90;1.50;;;;;;;21.44;53.15;98529.84;8417767;28;20565;-79
2022/07/11 09:27:18;;;;;;;5.37;1.30;;;;;;;21.28;54.26;98538.09;8417359;28;20233;-80
2022/07/11 09:31:23;;;;;;;3.43;1.10;;;;;;;21.16;55.02;98539.06;8417580;28;20525;-80
2022/07/11 09:35:28;;;;;;;11.73;1.23;;;;;;;21.17;54.92;98548.63;8417069;28;20238;-80
2022/07/11 09:39:31;;;;;;;5.30;1.00;;;;;;;21.15;54.81;98543.50;8416874;28;20237;-79
2022/07/11 09:43:34;;;;;;;3.83;1.07;;;;;;;20.64;57.57;98551.88;8417003;28;20229;-80
2022/07/11 09:47:45;;;;;;;4.83;0.90;;;;;;;21.01;55.33;98546.38;8416834;28;20419;-80
2022/07/11 09:51:48;;;;;;;5.07;1.10;;;;;;;21.08;55.41;98551.03;8416720;28;20470;-80
2022/07/11 09:55:52;;;;;;;11.73;1.30;;;;;;;20.98;56.25;98559.78;8416616;28;20243;-79
2022/07/11 09:59:55;;;;;;;0.67;0.67;;;;;;;20.83;57.24;98560.00;8416567;28;20534;-80
2022/07/11 10:04:00;;;;;;;2.17;0.50;;;;;;;20.26;59.09;98563.47;8416385;28;20285;-79
2022/07/11 10:08:04;;;;;;;0.50;0.30;;;;;;;19.95;59.94;98572.75;8416168;28;20235;-78
2022/07/11 10:12:08;;;;;;;0.60;0.40;;;;;;;19.99;60.19;98563.69;8415055;28;20233;-78
2022/07/11 10:16:16;;;;;;;1.47;0.50;;;;;;;19.99;60.19;98577.69;8415976;28;20236;-79
2022/07/11 10:20:26;;;;;;;1.80;0.53;;;;;;;20.20;60.12;98580.53;8415622;28;20235;-80
2022/07/11 10:24:46;;;;;;;0.70;0.60;;;;;;;20.23;59.92;98580.28;8384520;28;20508;-82
2022/07/11 10:28:53;;;;;;;1.00;0.40;;;;;;;20.28;59.93;98585.22;8382260;28;20231;-80
2022/07/11 10:33:00;;;;;;;0.90;0.53;;;;;;;20.34;59.62;98587.38;8382196;28;20339;-79
2022/07/11 10:37:06;;;;;;;0.50;0.50;;;;;;;20.45;60.04;98592.69;8382063;28;20233;-80
2022/07/11 10:41:21;;;;;;;1.03;0.40;;;;;;;20.77;58.87;98591.22;8381884;28;20530;-80
2022/07/11 10:45:25;;;;;;;0.60;0.40;;;;;;;20.89;57.76;98592.94;8386672;28;20414;-79
2022/07/11 10:49:38;;;;;;;0.77;0.30;;;;;;;20.96;56.66;98595.91;8390453;28;20232;-80
2022/07/11 10:53:46;;;;;;;0.30;0.30;;;;;;;21.31;57.51;98592.34;8392191;28;20242;-79
2022/07/11 10:57:56;;;;;;;0.40;0.30;;;;;;;21.97;54.01;98592.34;8380178;28;20405;-79
2022/07/11 11:02:20;;;;;;;0.63;0.40;;;;;;;21.34;55.76;98595.56;8393982;28;20423;-79
2022/07/11 11:06:56;;;;;;;0.57;0.53;;;;;;;21.56;55.55;98583.38;8413688;28;20234;-79
2022/07/11 11:11:00;;;;;;;0.83;0.40;;;;;;;21.36;55.45;98583.13;8413997;28;20242;-79
2022/07/11 11:15:33;;;;;;;0.63;0.30;;;;;;;21.17;55.33;98585.50;8413909;28;20547;-79
2022/07/11 11:19:55;;;;;;;0.50;0.30;;;;;;;21.31;55.38;98576.53;8413765;28;20349;-80
2022/07/11 11:24:11;;;;;;;1.03;0.40;;;;;;;21.69;54.08;98576.16;8413982;28;20260;-79
2022/07/11 11:28:20;;;;;;;0.43;0.37;;;;;;;21.47;54.97;98577.03;8397096;28;20234;-79
2022/07/11 11:32:30;;;;;;;1.10;0.50;;;;;;;21.15;55.02;98588.28;8380158;28;20227;-79
2022/07/11 11:36:33;;;;;;;2.50;0.50;;;;;;;20.73;56.03;98580.09;8380236;28;20240;-79
2022/07/11 11:40:36;;;;;;;0.30;0.30;;;;;;;21.47;55.32;98569.94;8380396;28;20417;-72
2022/07/11 11:44:55;;;;;;;1.00;0.40;;;;;;;22.06;53.35;98565.22;8380655;28;20231;-80
2022/07/11 11:48:59;;;;;;;0.70;0.30;;;;;;;23.65;49.69;98568.47;8380277;28;20231;-80
2022/07/11 11:53:02;;;;;;;0.50;0.50;;;;;;;22.58;50.81;98575.91;8380195;28;20234;-80
2022/07/11 11:57:11;;;;;;;1.00;0.30;;;;;;;22.74;50.58;98567.56;8380106;28;20436;-81
2022/07/11 12:01:25;;;;;;;0.90;0.50;;;;;;;23.40;48.11;98564.53;8386531;28;20237;-80
2022/07/11 12:05:28;;;;;;;0.30;0.30;;;;;;;23.48;47.16;98559.41;8412829;28;20420;-80
2022/07/11 12:09:52;;;;;;;0.43;0.33;;;;;;;23.05;48.35;98565.78;8413115;28;20242;-80
2022/07/11 12:13:57;;;;;;;0.67;0.37;;;;;;;22.78;49.64;98564.50;8412898;28;20230;-80
2022/07/11 12:18:03;;;;;;;0.30;0.30;;;;;;;22.64;49.11;98560.41;8412923;28;20226;-80
2022/07/11 12:22:06;;;;;;;1.20;0.27;;;;;;;22.63;50.10;98566.63;8412992;28;20425;-80
2022/07/11 12:26:11;;;;;;;2.37;0.40;;;;;;;22.88;49.48;98563.72;8412905;28;20254;-80
2022/07/11 12:30:24;;;;;;;0.40;0.30;;;;;;;23.60;47.03;98554.81;8412834;28;20542;-80
2022/07/11 12:34:43;;;;;;;1.13;0.50;;;;;;;23.46;47.02;98549.94;8414291;28;20235;-80
2022/07/11 12:38:51;;;;;;;0.40;0.40;;;;;;;23.69;46.97;98543.44;8418903;28;20243;-80
2022/07/11 12:42:54;;;;;;;0.77;0.37;;;;;;;24.45;46.00;98542.75;8418532;28;20234;-80
2022/07/11 12:47:04;;;;;;;2.07;0.30;;;;;;;24.14;45.91;98542.94;8417998;28;20226;-80
2022/07/11 12:51:32;;;;;;;0.67;0.37;;;;;;;23.93;46.83;98540.44;8418472;28;20487;-81
2022/07/11 12:55:35;;;;;;;0.67;0.30;;;;;;;23.90;46.36;98539.88;8418099;28;20226;-81
2022/07/11 12:59:40;;;;;;;0.70;0.30;;;;;;;23.49;46.34;98539.91;8417841;28;20238;-80
2022/07/11 13:03:43;;;;;;;0.87;0.40;;;;;;;23.55;46.86;98544.69;8417949;28;20242;-80
2022/07/11 13:12:08;;;;;;;0.50;0.20;;;;;;;23.49;46.73;98531.16;8418019;28;20234;-80
2022/07/11 13:16:11;;;;;;;0.30;0.30;;;;;;;23.60;46.00;98526.56;8417845;28;20234;-80
2022/07/11 13:20:15;;;;;;;0.43;0.37;;;;;;;23.72;46.40;98522.03;8417474;28;20517;-81
2022/07/11 13:24:20;;;;;;;0.40;0.40;;;;;;;23.74;45.49;98528.00;8417386;28;20233;-81
2022/07/11 13:28:24;;;;;;;0.53;0.40;;;;;;;23.87;46.23;98525.09;8417127;28;20285;-80
2022/07/11 13:32:27;;;;;;;0.77;0.40;;;;;;;23.91;46.49;98529.16;8417158;28;20237;-80
2022/07/11 13:36:30;;;;;;;0.50;0.40;;;;;;;23.84;46.10;98524.53;8417243;28;20532;-80
2022/07/11 13:40:35;;;;;;;0.47;0.40;;;;;;;24.11;45.14;98526.50;8416874;28;20230;-80
2022/07/11 13:44:37;;;;;;;0.93;0.40;;;;;;;23.93;44.98;98521.06;8416546;28;20239;-80
2022/07/11 13:48:41;;;;;;;3.63;0.70;;;;;;;23.79;45.46;98523.16;8416813;28;20228;-82
2022/07/11 13:52:48;;;;;;;1.30;0.43;;;;;;;23.42;45.54;98517.66;8416675;28;20518;-82
2022/07/11 13:56:52;;;;;;;11.37;1.20;;;;;;;23.46;46.00;98520.88;8416622;28;20231;-83
2022/07/11 14:00:55;;;;;;;7.00;1.40;;;;;;;23.52;45.74;98523.78;8416055;28;20222;-82
2022/07/11 14:04:58;;;;;;;9.70;1.00;;;;;;;23.39;46.88;98526.69;8416080;28;20223;-82
2022/07/11 14:09:01;;;;;;;1.30;0.50;;;;;;;23.38;47.75;98529.44;8416337;28;20234;-82
2022/07/11 14:13:06;;;;;;;3.83;0.90;;;;;;;23.33;47.45;98529.03;8415946;28;20236;-82
2022/07/11 14:17:09;;;;;;;6.17;1.07;;;;;;;23.29;47.45;98532.94;8415478;28;20222;-82
2022/07/11 14:21:12;;;;;;;4.63;1.10;;;;;;;23.26;47.28;98527.91;8415727;28;20250;-83
2022/07/11 14:25:15;;;;;;;10.93;1.63;;;;;;;23.34;46.79;98517.47;8415681;28;20258;-82
2022/07/11 14:29:19;;;;;;;0.67;0.50;;;;;;;23.15;46.98;98518.25;8415496;28;20229;-82
2022/07/11 14:33:22;;;;;;;9.30;1.27;;;;;;;22.96;47.31;98522.50;8409216;28;20223;-81
2022/07/11 14:37:26;;;;;;;8.73;1.23;;;;;;;22.73;47.66;98524.50;8382033;28;20227;-83
2022/07/11 14:41:28;;;;;;;11.80;1.10;;;;;;;22.65;48.20;98526.91;8382074;28;20231;-82
2022/07/11 14:45:33;;;;;;;15.93;1.60;;;;;;;22.78;48.09;98526.72;8381520;28;20246;-80
2022/07/11 14:49:35;;;;;;;8.93;1.63;;;;;;;23.03;47.58;98510.44;8381935;28;20550;-83
2022/07/11 14:53:38;;;;;;;5.97;1.20;;;;;;;23.22;47.10;98516.75;8381766;28;20235;-83
2022/07/11 14:57:41;;;;;;;3.40;0.90;;;;;;;23.45;47.11;98511.25;8411353;28;20254;-83
2022/07/11 15:01:51;;;;;;;10.57;1.47;;;;;;;23.55;46.04;98518.25;8414493;28;20410;-83
2022/07/11 15:05:54;;;;;;;1.73;0.50;;;;;;;23.45;46.63;98519.19;8414336;28;20230;-82
2022/07/11 15:14:18;;;;;;;6.70;1.27;;;;;;;23.16;46.40;98515.50;8414400;28;20238;-82
2022/07/11 15:18:22;;;;;;;12.73;1.77;;;;;;;23.24;46.57;98522.75;8414108;28;20377;-82
2022/07/11 15:22:25;;;;;;;2.93;0.60;;;;;;;23.08;46.36;98531.19;8413591;28;20450;-82
2022/07/11 15:26:28;;;;;;;9.83;1.50;;;;;;;23.01;47.24;98535.28;8413983;28;20413;-82
2022/07/11 15:30:31;;;;;;;8.70;1.30;;;;;;;22.99;47.81;98534.59;8413869;28;20336;-82
2022/07/11 15:34:36;;;;;;;8.17;1.70;;;;;;;22.98;47.48;98528.47;8413961;28;20242;-82
2022/07/11 15:38:39;;;;;;;11.07;1.40;;;;;;;22.97;47.82;98537.34;8413657;28;20238;-82
2022/07/11 15:42:42;;;;;;;5.77;1.30;;;;;;;22.94;48.11;98531.50;8413643;28;20242;-82
2022/07/11 15:46:45;;;;;;;2.00;0.47;;;;;;;22.82;48.31;98534.22;8413307;28;20505;-81
2022/07/11 15:50:50;;;;;;;6.73;1.20;;;;;;;22.94;47.95;98535.00;8413182;28;20475;-82
2022/07/11 15:54:53;;;;;;;5.63;1.10;;;;;;;22.96;47.88;98532.19;8413300;28;20239;-82
2022/07/11 15:58:57;;;;;;;7.93;1.47;;;;;;;22.97;47.94;98526.78;8409385;28;20227;-82
2022/07/11 16:02:59;;;;;;;8.37;1.13;;;;;;;22.97;47.94;98518.03;8401061;28;20230;-82
2022/07/11 16:07:04;;;;;;;3.13;0.80;;;;;;;23.13;47.54;98514.94;8412899;28;20567;-82
2022/07/11 16:11:07;;;;;;;5.00;1.03;;;;;;;23.21;47.15;98512.47;8418216;28;20425;-81
2022/07/11 16:15:10;;;;;;;6.67;1.00;;;;;;;23.22;47.19;98508.84;8419904;28;20230;-82
2022/07/11 16:19:13;;;;;;;11.80;1.40;;;;;;;23.12;47.37;98514.09;8419436;28;20422;-81
2022/07/11 16:23:17;;;;;;;4.00;0.80;;;;;;;23.14;47.93;98512.16;8418202;28;20403;-82
2022/07/11 16:27:19;;;;;;;7.67;1.40;;;;;;;23.12;47.97;98514.09;8419200;28;20425;-80
2022/07/11 16:31:22;;;;;;;9.10;1.43;;;;;;;23.08;48.70;98512.69;8418725;28;20223;-79
2022/07/11 16:35:25;;;;;;;7.03;1.30;;;;;;;23.04;48.15;98516.59;8419117;28;20290;-79
2022/07/11 16:43:50;;;;;;;3.20;1.00;;;;;;;23.02;48.40;98515.84;8418852;28;20226;-80
2022/07/11 16:47:53;;;;;;;3.47;1.20;;;;;;;22.99;48.52;98532.78;8418579;28;20241;-80
2022/07/11 16:51:56;;;;;;;1.27;0.43;;;;;;;22.84;49.32;98527.00;8418797;28;20230;-80
2022/07/11 16:56:01;;;;;;;4.27;0.90;;;;;;;22.87;49.13;98536.50;8418584;28;20226;-82
2022/07/11 17:00:05;;;;;;;5.53;1.00;;;;;;;22.81;48.88;98531.75;8417976;28;20241;-84
2022/07/11 17:04:09;;;;;;;6.33;1.60;;;;;;;22.79;48.87;98529.22;8418050;28;20230;-82
2022/07/11 17:12:36;;;;;;;5.17;1.30;;;;;;;22.81;48.76;98531.75;8417740;28;20225;-80
2022/07/11 17:16:39;;;;;;;4.97;1.07;;;;;;;22.68;48.88;98529.31;8417909;28;20544;-81
2022/07/11 17:20:43;;;;;;;6.17;1.70;;;;;;;22.63;49.01;98536.78;8404243;28;20240;-79
2022/07/11 17:24:50;;;;;;;3.50;1.03;;;;;;;22.59;48.95;98530.09;8384320;28;20294;-81
2022/07/11 17:28:54;;;;;;;10.57;2.30;;;;;;;22.64;48.75;98526.09;8384382;28;20242;-81
2022/07/11 17:32:57;;;;;;;14.53;2.57;;;;;;;22.70;48.95;98527.38;8416037;28;20227;-82
2022/07/11 17:37:01;;;;;;;24.20;2.47;;;;;;;22.74;49.24;98528.78;8412136;28;20226;-78
2022/07/11 17:41:04;;;;;;;3.03;0.97;;;;;;;22.54;49.47;98527.84;8383881;28;20230;-84
2022/07/11 17:45:10;;;;;;;5.70;1.60;;;;;;;22.54;49.58;98537.56;8383721;28;20526;-83
2022/07/11 17:49:14;;;;;;;12.37;2.83;;;;;;;22.43;49.83;98538.47;8383447;28;20231;-85
2022/07/11 17:53:17;;;;;;;11.60;2.77;;;;;;;22.60;49.38;98545.81;8383516;28;20526;-84
2022/07/11 17:57:20;;;;;;;8.23;2.20;;;;;;;22.57;49.41;98546.06;8383457;28;20230;-83
2022/07/11 18:01:24;;;;;;;5.57;1.93;;;;;;;22.53;49.19;98547.28;8390622;28;20218;-83
2022/07/11 18:05:27;;;;;;;7.27;2.20;;;;;;;22.48;49.70;98551.28;8416204;28;20223;-80
2022/07/11 18:09:30;;;;;;;2.80;0.80;;;;;;;22.38;49.23;98548.56;8416197;28;20227;-81
2022/07/11 18:13:33;;;;;;;11.87;2.73;;;;;;;22.32;49.92;98541.19;8415881;28;20435;-80
2022/07/11 18:17:37;;;;;;;1.97;0.50;;;;;;;22.22;49.66;98549.81;8415659;28;20244;-79
2022/07/11 18:21:40;;;;;;;0.40;0.30;;;;;;;22.18;49.83;98552.81;8415548;28;20245;-79
2022/07/11 18:25:43;;;;;;;1.47;0.50;;;;;;;22.13;50.16;98544.47;8414418;28;20241;-78
2022/07/11 18:29:46;;;;;;;1.37;0.50;;;;;;;21.97;50.56;98537.84;8415261;28;20238;-79
2022/07/11 18:33:50;;;;;;;0.40;0.40;;;;;;;21.90;50.74;98541.94;8414475;28;20233;-79
2022/07/11 18:37:53;;;;;;;2.27;0.43;;;;;;;21.88;50.63;98549.13;8414954;28;20231;-78
2022/07/11 18:41:56;;;;;;;0.73;0.47;;;;;;;21.83;51.13;98546.84;8414909;28;20295;-79
2022/07/11 18:45:58;;;;;;;1.07;0.60;;;;;;;21.82;51.26;98547.00;8414973;28;20227;-79
2022/07/11 18:50:03;;;;;;;0.70;0.50;;;;;;;21.76;51.52;98548.34;8414893;28;20234;-79
2022/07/11 18:54:13;;;;;;;2.23;0.47;;;;;;;21.71;51.41;98557.59;8414774;28;20230;-79
2022/07/11 18:58:16;;;;;;;0.87;0.60;;;;;;;21.67;51.48;98557.00;8388403;28;20227;-79
2022/07/11 19:02:21;;;;;;;1.73;0.50;;;;;;;21.65;50.98;98558.91;8396172;28;20242;-80
2022/07/11 19:06:26;;;;;;;1.73;0.40;;;;;;;21.54;50.92;98557.13;8413709;28;20225;-80
2022/07/11 19:10:29;;;;;;;0.90;0.70;;;;;;;21.55;50.44;98550.06;8414201;28;20238;-79
2022/07/11 19:14:33;;;;;;;0.47;0.47;;;;;;;21.46;50.78;98551.66;8414200;28;20248;-79
2022/07/11 19:18:36;;;;;;;0.40;0.40;;;;;;;21.39;50.32;98559.16;8414026;28;20588;-80
2022/07/11 19:22:40;;;;;;;1.30;0.40;;;;;;;21.33;50.14;98558.81;8413689;28;20242;-79
2022/07/11 19:26:43;;;;;;;0.77;0.40;;;;;;;21.28;50.42;98562.66;8407085;28;20227;-79
2022/07/11 19:30:46;;;;;;;0.70;0.40;;;;;;;21.18;50.62;98555.59;8396918;28;20230;-79
2022/07/11 19:34:49;;;;;;;0.90;0.30;;;;;;;21.16;50.36;98562.78;8396527;28;20226;-80